sensor_id;sensor_type;location;lat;lon;timestamp;pressure;altitude;pressure_sealevel;temperature;humidity
29121;BME280;16191;49.548;8.658;2023-07-20T00:02:04;100220.19;;;21.29;57.85
29121;BME280;16191;49.548;8.658;2023-07-20T00:04:32;100226.06;;;21.12;58.54
29121;BME280;16191;49.548;8.658;2023-07-20T00:06:59;100217.53;;;21.08;58.95
29121;BME280;16191;49.548;8.658;2023-07-20T00:09:27;100224.72;;;20.97;59.53
29121;BME280;16191;49.548;8.658;2023-07-20T00:11:54;100225.81;;;20.73;61.11
29121;BME280;16191;49.548;8.658;2023-07-20T00:14:21;100223.53;;;20.90;60.31
29121;BME280;16191;49.548;8.658;2023-07-20T00:16:50;100224.47;;;21.00;59.92
29121;BME280;16191;49.548;8.658;2023-07-20T00:19:23;100218.88;;;21.03;59.91
29121;BME280;16191;49.548;8.658;2023-07-20T00:21:50;100228.84;;;20.90;60.30
29121;BME280;16191;49.548;8.658;2023-07-20T00:24:17;100225.09;;;20.92;60.38
29121;BME280;16191;49.548;8.658;2023-07-20T00:26:44;100224.13;;;20.93;60.16
29121;BME280;16191;49.548;8.658;2023-07-20T00:29:12;100232.25;;;20.80;60.92
29121;BME280;16191;49.548;8.658;2023-07-20T00:31:39;100229.16;;;20.75;61.37
29121;BME280;16191;49.548;8.658;2023-07-20T00:34:06;100225.41;;;20.78;61.27
29121;BME280;16191;49.548;8.658;2023-07-20T00:36:33;100228.31;;;20.75;61.65
29121;BME280;16191;49.548;8.658;2023-07-20T00:39:01;100230.72;;;20.78;61.61
29121;BME280;16191;49.548;8.658;2023-07-20T00:41:31;100232.28;;;20.48;62.95
29121;BME280;16191;49.548;8.658;2023-07-20T00:43:59;100234.47;;;20.43;63.42
29121;BME280;16191;49.548;8.658;2023-07-20T00:46:26;100239.03;;;20.41;63.87
29121;BME280;16191;49.548;8.658;2023-07-20T00:48:53;100236.97;;;20.56;62.94
29121;BME280;16191;49.548;8.658;2023-07-20T00:51:21;100245.41;;;20.50;62.95
29121;BME280;16191;49.548;8.658;2023-07-20T00:53:49;100244.81;;;20.35;64.28
29121;BME280;16191;49.548;8.658;2023-07-20T00:56:16;100238.44;;;20.38;64.08
29121;BME280;16191;49.548;8.658;2023-07-20T00:58:43;100235.06;;;20.47;63.36
29121;BME280;16191;49.548;8.658;2023-07-20T01:01:10;100243.50;;;20.41;63.63
29121;BME280;16191;49.548;8.658;2023-07-20T01:03:37;100244.97;;;20.23;64.52
29121;BME280;16191;49.548;8.658;2023-07-20T01:06:21;100246.31;;;20.17;65.25
29121;BME280;16191;49.548;8.658;2023-07-20T01:14:08;100238.72;;;20.24;66.31
29121;BME280;16191;49.548;8.658;2023-07-20T01:16:35;100238.94;;;20.20;65.72
29121;BME280;16191;49.548;8.658;2023-07-20T01:19:02;100228.84;;;20.14;65.22
29121;BME280;16191;49.548;8.658;2023-07-20T01:21:37;100236.22;;;20.11;65.38
29121;BME280;16191;49.548;8.658;2023-07-20T01:27:22;100231.66;;;20.02;65.98
29121;BME280;16191;49.548;8.658;2023-07-20T01:30:03;100233.47;;;20.01;66.24
29121;BME280;16191;49.548;8.658;2023-07-20T01:32:34;100233.09;;;20.06;65.36
29121;BME280;16191;49.548;8.658;2023-07-20T01:35:27;100229.50;;;19.96;66.52
29121;BME280;16191;49.548;8.658;2023-07-20T01:38:16;100238.06;;;19.88;67.00
29121;BME280;16191;49.548;8.658;2023-07-20T01:41:03;100234.22;;;19.81;67.67
29121;BME280;16191;49.548;8.658;2023-07-20T01:43:50;100239.97;;;19.75;67.91
29121;BME280;16191;49.548;8.658;2023-07-20T01:46:36;100239.75;;;19.67;69.09
29121;BME280;16191;49.548;8.658;2023-07-20T01:49:23;100240.59;;;19.67;68.73
29121;BME280;16191;49.548;8.658;2023-07-20T01:51:50;100233.63;;;19.66;68.52
29121;BME280;16191;49.548;8.658;2023-07-20T01:54:17;100229.53;;;19.62;68.97
29121;BME280;16191;49.548;8.658;2023-07-20T01:56:45;100227.59;;;19.53;70.69
29121;BME280;16191;49.548;8.658;2023-07-20T01:59:11;100229.38;;;19.41;71.62
29121;BME280;16191;49.548;8.658;2023-07-20T02:01:38;100224.19;;;19.40;71.80
29121;BME280;16191;49.548;8.658;2023-07-20T02:04:05;100237.41;;;19.29;73.00
29121;BME280;16191;49.548;8.658;2023-07-20T02:06:31;100232.94;;;19.29;72.28
29121;BME280;16191;49.548;8.658;2023-07-20T02:08:58;100243.66;;;19.28;72.32
29121;BME280;16191;49.548;8.658;2023-07-20T02:11:25;100247.50;;;19.24;72.92
29121;BME280;16191;49.548;8.658;2023-07-20T02:13:52;100241.22;;;19.13;73.44
29121;BME280;16191;49.548;8.658;2023-07-20T02:16:18;100237.13;;;19.09;74.03
29121;BME280;16191;49.548;8.658;2023-07-20T02:18:46;100235.44;;;19.08;74.32
29121;BME280;16191;49.548;8.658;2023-07-20T02:21:12;100235.66;;;19.05;74.89
29121;BME280;16191;49.548;8.658;2023-07-20T02:23:39;100235.09;;;19.02;75.15
29121;BME280;16191;49.548;8.658;2023-07-20T02:26:06;100237.72;;;19.02;75.09
29121;BME280;16191;49.548;8.658;2023-07-20T02:28:33;100246.63;;;19.01;75.76
29121;BME280;16191;49.548;8.658;2023-07-20T02:30:59;100238.19;;;18.96;75.69
29121;BME280;16191;49.548;8.658;2023-07-20T02:33:27;100242.13;;;18.90;77.68
29121;BME280;16191;49.548;8.658;2023-07-20T02:35:54;100246.22;;;18.83;77.26
29121;BME280;16191;49.548;8.658;2023-07-20T02:38:20;100249.97;;;18.68;77.82
29121;BME280;16191;49.548;8.658;2023-07-20T02:40:47;100249.34;;;18.64;79.19
29121;BME280;16191;49.548;8.658;2023-07-20T02:43:13;100249.34;;;18.64;79.40
29121;BME280;16191;49.548;8.658;2023-07-20T02:45:40;100245.03;;;18.63;79.24
29121;BME280;16191;49.548;8.658;2023-07-20T02:48:09;100253.09;;;18.62;79.22
29121;BME280;16191;49.548;8.658;2023-07-20T02:50:36;100248.44;;;18.53;80.25
29121;BME280;16191;49.548;8.658;2023-07-20T02:53:02;100254.47;;;18.55;80.69
29121;BME280;16191;49.548;8.658;2023-07-20T02:55:29;100242.25;;;18.41;82.67
29121;BME280;16191;49.548;8.658;2023-07-20T02:57:56;100248.94;;;18.34;83.60
29121;BME280;16191;49.548;8.658;2023-07-20T03:00:23;100255.94;;;18.35;84.54
29121;BME280;16191;49.548;8.658;2023-07-20T03:02:50;100253.31;;;18.22;88.31
29121;BME280;16191;49.548;8.658;2023-07-20T03:05:22;100255.47;;;18.04;91.09
29121;BME280;16191;49.548;8.658;2023-07-20T03:07:51;100258.53;;;18.11;90.38
29121;BME280;16191;49.548;8.658;2023-07-20T03:10:19;100255.47;;;18.04;92.15
29121;BME280;16191;49.548;8.658;2023-07-20T03:12:45;100258.91;;;17.94;93.21
29121;BME280;16191;49.548;8.658;2023-07-20T03:15:12;100251.09;;;17.79;95.39
29121;BME280;16191;49.548;8.658;2023-07-20T03:17:39;100255.03;;;17.74;96.02
29121;BME280;16191;49.548;8.658;2023-07-20T03:20:06;100248.66;;;17.76;95.85
29121;BME280;16191;49.548;8.658;2023-07-20T03:22:36;100246.56;;;17.81;95.89
29121;BME280;16191;49.548;8.658;2023-07-20T03:25:03;100253.75;;;17.79;95.76
29121;BME280;16191;49.548;8.658;2023-07-20T03:27:31;100257.63;;;17.61;99.15
29121;BME280;16191;49.548;8.658;2023-07-20T03:29:59;100257.16;;;17.69;97.24
29121;BME280;16191;49.548;8.658;2023-07-20T03:32:26;100248.13;;;17.59;98.87
29121;BME280;16191;49.548;8.658;2023-07-20T03:34:52;100259.22;;;17.64;98.19
29121;BME280;16191;49.548;8.658;2023-07-20T03:37:19;100256.69;;;17.62;97.98
29121;BME280;16191;49.548;8.658;2023-07-20T03:39:46;100262.63;;;17.53;100.00
29121;BME280;16191;49.548;8.658;2023-07-20T03:42:12;100261.34;;;17.46;100.00
29121;BME280;16191;49.548;8.658;2023-07-20T03:44:39;100264.31;;;17.29;100.00
29121;BME280;16191;49.548;8.658;2023-07-20T03:47:07;100260.81;;;17.28;100.00
29121;BME280;16191;49.548;8.658;2023-07-20T03:49:34;100261.88;;;17.26;100.00
29121;BME280;16191;49.548;8.658;2023-07-20T03:52:01;100258.41;;;17.25;100.00
29121;BME280;16191;49.548;8.658;2023-07-20T03:54:29;100267.47;;;17.21;100.00
29121;BME280;16191;49.548;8.658;2023-07-20T03:56:56;100269.44;;;17.18;100.00
29121;BME280;16191;49.548;8.658;2023-07-20T03:59:22;100266.72;;;17.19;100.00
29121;BME280;16191;49.548;8.658;2023-07-20T04:01:49;100267.00;;;17.14;100.00
29121;BME280;16191;49.548;8.658;2023-07-20T04:04:16;100272.28;;;17.14;100.00
29121;BME280;16191;49.548;8.658;2023-07-20T04:06:43;100273.69;;;17.20;100.00
29121;BME280;16191;49.548;8.658;2023-07-20T04:09:12;100275.66;;;17.17;100.00
29121;BME280;16191;49.548;8.658;2023-07-20T04:11:39;100281.59;;;17.20;100.00
29121;BME280;16191;49.548;8.658;2023-07-20T04:14:07;100280.84;;;17.18;100.00
29121;BME280;16191;49.548;8.658;2023-07-20T04:16:33;100282.84;;;17.14;100.00
29121;BME280;16191;49.548;8.658;2023-07-20T04:19:00;100281.16;;;17.13;100.00
29121;BME280;16191;49.548;8.658;2023-07-20T04:21:27;100285.38;;;17.03;100.00
29121;BME280;16191;49.548;8.658;2023-07-20T04:23:54;100291.50;;;17.17;100.00
29121;BME280;16191;49.548;8.658;2023-07-20T04:26:21;100292.25;;;17.19;100.00
29121;BME280;16191;49.548;8.658;2023-07-20T04:28:48;100290.13;;;17.24;100.00
29121;BME280;16191;49.548;8.658;2023-07-20T04:31:30;100297.63;;;17.17;100.00
29121;BME280;16191;49.548;8.658;2023-07-20T04:33:59;100298.69;;;17.27;100.00
29121;BME280;16191;49.548;8.658;2023-07-20T04:36:26;100291.09;;;17.23;100.00
29121;BME280;16191;49.548;8.658;2023-07-20T04:38:54;100295.00;;;17.30;100.00
29121;BME280;16191;49.548;8.658;2023-07-20T04:41:21;100300.50;;;17.39;100.00
29121;BME280;16191;49.548;8.658;2023-07-20T04:43:50;100297.34;;;17.47;100.00
29121;BME280;16191;49.548;8.658;2023-07-20T04:46:24;100304.19;;;17.50;100.00
29121;BME280;16191;49.548;8.658;2023-07-20T04:48:51;100305.44;;;17.57;100.00
29121;BME280;16191;49.548;8.658;2023-07-20T04:51:18;100306.00;;;17.49;100.00
29121;BME280;16191;49.548;8.658;2023-07-20T04:53:49;100297.22;;;17.48;100.00
29121;BME280;16191;49.548;8.658;2023-07-20T04:56:16;100299.56;;;17.53;100.00
29121;BME280;16191;49.548;8.658;2023-07-20T04:58:43;100302.06;;;17.55;100.00
29121;BME280;16191;49.548;8.658;2023-07-20T05:01:12;100299.97;;;17.60;100.00
29121;BME280;16191;49.548;8.658;2023-07-20T05:03:39;100288.91;;;17.67;100.00
29121;BME280;16191;49.548;8.658;2023-07-20T05:06:08;100292.78;;;17.62;100.00
29121;BME280;16191;49.548;8.658;2023-07-20T05:08:34;100298.81;;;17.64;100.00
29121;BME280;16191;49.548;8.658;2023-07-20T05:11:01;100292.94;;;17.73;100.00
29121;BME280;16191;49.548;8.658;2023-07-20T05:13:28;100288.50;;;17.73;100.00
29121;BME280;16191;49.548;8.658;2023-07-20T05:15:55;100284.47;;;17.80;100.00
29121;BME280;16191;49.548;8.658;2023-07-20T05:18:22;100291.22;;;17.85;100.00
29121;BME280;16191;49.548;8.658;2023-07-20T05:20:50;100289.09;;;17.90;100.00
29121;BME280;16191;49.548;8.658;2023-07-20T05:23:18;100287.84;;;17.95;100.00
29121;BME280;16191;49.548;8.658;2023-07-20T05:25:46;100284.25;;;17.96;100.00
29121;BME280;16191;49.548;8.658;2023-07-20T05:28:12;100289.91;;;18.03;100.00
29121;BME280;16191;49.548;8.658;2023-07-20T05:30:40;100280.72;;;18.08;100.00
29121;BME280;16191;49.548;8.658;2023-07-20T05:33:06;100285.69;;;18.13;100.00
29121;BME280;16191;49.548;8.658;2023-07-20T05:35:33;100292.59;;;18.27;100.00
29121;BME280;16191;49.548;8.658;2023-07-20T05:38:00;100295.75;;;18.32;99.80
29121;BME280;16191;49.548;8.658;2023-07-20T05:40:26;100286.56;;;18.37;99.27
29121;BME280;16191;49.548;8.658;2023-07-20T05:42:53;100289.69;;;18.42;98.48
29121;BME280;16191;49.548;8.658;2023-07-20T05:45:22;100290.66;;;18.41;98.01
29121;BME280;16191;49.548;8.658;2023-07-20T05:47:49;100285.25;;;18.43;97.89
29121;BME280;16191;49.548;8.658;2023-07-20T05:50:15;100288.41;;;18.48;98.36
29121;BME280;16191;49.548;8.658;2023-07-20T05:52:42;100291.75;;;18.63;97.59
29121;BME280;16191;49.548;8.658;2023-07-20T05:55:09;100286.34;;;18.64;95.66
29121;BME280;16191;49.548;8.658;2023-07-20T05:57:35;100298.28;;;18.70;95.96
29121;BME280;16191;49.548;8.658;2023-07-20T06:00:03;100295.88;;;18.67;95.44
29121;BME280;16191;49.548;8.658;2023-07-20T06:02:37;100297.22;;;18.72;95.31
29121;BME280;16191;49.548;8.658;2023-07-20T06:05:04;100295.59;;;18.82;95.12
29121;BME280;16191;49.548;8.658;2023-07-20T06:07:31;100301.25;;;18.89;94.79
29121;BME280;16191;49.548;8.658;2023-07-20T06:09:58;100294.50;;;18.85;94.13
29121;BME280;16191;49.548;8.658;2023-07-20T06:12:25;100298.94;;;18.84;92.65
29121;BME280;16191;49.548;8.658;2023-07-20T06:14:52;100297.75;;;18.89;93.67
29121;BME280;16191;49.548;8.658;2023-07-20T06:17:19;100300.69;;;18.97;93.15
29121;BME280;16191;49.548;8.658;2023-07-20T06:19:45;100311.88;;;19.00;92.46
29121;BME280;16191;49.548;8.658;2023-07-20T06:22:12;100308.72;;;18.95;91.22
29121;BME280;16191;49.548;8.658;2023-07-20T06:24:38;100303.22;;;18.98;91.13
29121;BME280;16191;49.548;8.658;2023-07-20T06:27:05;100297.03;;;18.87;91.62
29121;BME280;16191;49.548;8.658;2023-07-20T06:29:32;100302.25;;;18.99;91.13
29121;BME280;16191;49.548;8.658;2023-07-20T06:31:58;100295.00;;;18.90;92.68
29121;BME280;16191;49.548;8.658;2023-07-20T06:34:25;100299.97;;;18.95;92.40
29121;BME280;16191;49.548;8.658;2023-07-20T06:36:51;100302.06;;;19.13;91.67
29121;BME280;16191;49.548;8.658;2023-07-20T06:39:18;100307.75;;;19.20;89.45
29121;BME280;16191;49.548;8.658;2023-07-20T06:41:48;100303.41;;;19.30;89.14
29121;BME280;16191;49.548;8.658;2023-07-20T06:44:14;100315.34;;;19.25;87.67
29121;BME280;16191;49.548;8.658;2023-07-20T06:46:41;100304.25;;;19.20;87.93
29121;BME280;16191;49.548;8.658;2023-07-20T06:49:08;100300.53;;;19.22;87.92
29121;BME280;16191;49.548;8.658;2023-07-20T06:51:37;100301.38;;;19.34;86.86
29121;BME280;16191;49.548;8.658;2023-07-20T06:54:04;100299.59;;;19.34;85.89
29121;BME280;16191;49.548;8.658;2023-07-20T06:56:31;100304.69;;;19.48;85.35
29121;BME280;16191;49.548;8.658;2023-07-20T06:58:59;100304.59;;;19.61;86.19
29121;BME280;16191;49.548;8.658;2023-07-20T07:01:25;100304.41;;;19.40;85.45
29121;BME280;16191;49.548;8.658;2023-07-20T07:03:53;100304.56;;;19.50;85.27
29121;BME280;16191;49.548;8.658;2023-07-20T07:06:21;100308.78;;;19.52;84.24
29121;BME280;16191;49.548;8.658;2023-07-20T07:08:50;100301.25;;;19.81;82.74
29121;BME280;16191;49.548;8.658;2023-07-20T07:11:17;100300.75;;;20.21;81.13
29121;BME280;16191;49.548;8.658;2023-07-20T07:13:43;100303.50;;;20.31;79.82
29121;BME280;16191;49.548;8.658;2023-07-20T07:16:13;100312.53;;;20.39;77.89
29121;BME280;16191;49.548;8.658;2023-07-20T07:18:50;100304.22;;;20.33;77.46
29121;BME280;16191;49.548;8.658;2023-07-20T07:21:17;100300.25;;;20.27;77.57
29121;BME280;16191;49.548;8.658;2023-07-20T07:23:43;100299.78;;;20.33;77.87
29121;BME280;16191;49.548;8.658;2023-07-20T07:26:10;100289.28;;;20.54;76.01
29121;BME280;16191;49.548;8.658;2023-07-20T07:28:37;100292.59;;;20.67;75.36
29121;BME280;16191;49.548;8.658;2023-07-20T07:31:04;100299.28;;;20.82;74.84
29121;BME280;16191;49.548;8.658;2023-07-20T07:33:32;100294.78;;;20.94;73.23
29121;BME280;16191;49.548;8.658;2023-07-20T07:35:59;100284.16;;;20.94;71.83
29121;BME280;16191;49.548;8.658;2023-07-20T07:38:28;100294.69;;;21.37;69.95
29121;BME280;16191;49.548;8.658;2023-07-20T07:41:14;100286.03;;;21.35;68.46
29121;BME280;16191;49.548;8.658;2023-07-20T07:43:41;100286.22;;;21.43;68.30
29121;BME280;16191;49.548;8.658;2023-07-20T07:46:07;100284.78;;;21.39;67.93
29121;BME280;16191;49.548;8.658;2023-07-20T07:48:34;100288.09;;;21.32;68.11
29121;BME280;16191;49.548;8.658;2023-07-20T07:51:01;100299.72;;;21.19;68.88
29121;BME280;16191;49.548;8.658;2023-07-20T07:53:27;100303.59;;;20.83;71.18
29121;BME280;16191;49.548;8.658;2023-07-20T07:55:54;100305.91;;;20.56;73.42
29121;BME280;16191;49.548;8.658;2023-07-20T07:58:21;100304.16;;;20.66;73.05
29121;BME280;16191;49.548;8.658;2023-07-20T08:00:47;100310.72;;;20.83;72.03
29121;BME280;16191;49.548;8.658;2023-07-20T08:03:14;100313.47;;;20.93;71.97
29121;BME280;16191;49.548;8.658;2023-07-20T08:05:41;100312.50;;;20.94;72.35
29121;BME280;16191;49.548;8.658;2023-07-20T08:08:08;100309.59;;;20.97;72.46
29121;BME280;16191;49.548;8.658;2023-07-20T08:10:35;100313.66;;;21.33;71.80
29121;BME280;16191;49.548;8.658;2023-07-20T08:13:01;100310.38;;;21.71;68.80
29121;BME280;16191;49.548;8.658;2023-07-20T08:15:28;100307.50;;;22.04;66.64
29121;BME280;16191;49.548;8.658;2023-07-20T08:17:54;100303.50;;;22.19;66.89
29121;BME280;16191;49.548;8.658;2023-07-20T08:20:21;100299.25;;;22.67;64.32
29121;BME280;16191;49.548;8.658;2023-07-20T08:22:55;100296.75;;;22.84;62.94
29121;BME280;16191;49.548;8.658;2023-07-20T08:25:22;100300.53;;;23.01;60.51
29121;BME280;16191;49.548;8.658;2023-07-20T08:27:49;100298.47;;;22.26;60.26
29121;BME280;16191;49.548;8.658;2023-07-20T08:30:16;100298.63;;;22.34;59.69
29121;BME280;16191;49.548;8.658;2023-07-20T08:32:42;100297.03;;;22.12;60.63
29121;BME280;16191;49.548;8.658;2023-07-20T08:35:09;100304.16;;;21.81;60.32
29121;BME280;16191;49.548;8.658;2023-07-20T08:37:36;100315.78;;;20.86;65.15
29121;BME280;16191;49.548;8.658;2023-07-20T08:40:03;100318.00;;;21.02;66.07
29121;BME280;16191;49.548;8.658;2023-07-20T08:42:30;100311.59;;;21.36;65.05
29121;BME280;16191;49.548;8.658;2023-07-20T08:44:57;100315.34;;;21.34;63.99
29121;BME280;16191;49.548;8.658;2023-07-20T08:47:25;100312.47;;;21.98;61.63
29121;BME280;16191;49.548;8.658;2023-07-20T08:49:53;100311.69;;;21.76;60.07
29121;BME280;16191;49.548;8.658;2023-07-20T08:52:21;100307.84;;;22.30;58.47
29121;BME280;16191;49.548;8.658;2023-07-20T08:54:48;100304.88;;;22.73;57.58
29121;BME280;16191;49.548;8.658;2023-07-20T08:57:15;100309.22;;;23.03;56.39
29121;BME280;16191;49.548;8.658;2023-07-20T08:59:43;100304.72;;;23.33;54.03
29121;BME280;16191;49.548;8.658;2023-07-20T09:02:14;100296.50;;;23.73;53.44
29121;BME280;16191;49.548;8.658;2023-07-20T09:04:45;100301.13;;;23.80;51.34
29121;BME280;16191;49.548;8.658;2023-07-20T09:07:13;100299.78;;;23.47;52.44
29121;BME280;16191;49.548;8.658;2023-07-20T09:09:40;100297.81;;;23.40;52.02
29121;BME280;16191;49.548;8.658;2023-07-20T09:12:16;100303.47;;;23.27;52.54
29121;BME280;16191;49.548;8.658;2023-07-20T09:14:43;100295.19;;;23.30;52.73
29121;BME280;16191;49.548;8.658;2023-07-20T09:17:14;100300.78;;;23.27;52.04
29121;BME280;16191;49.548;8.658;2023-07-20T09:19:47;100305.44;;;22.96;52.38
29121;BME280;16191;49.548;8.658;2023-07-20T09:22:14;100295.66;;;23.72;51.33
29121;BME280;16191;49.548;8.658;2023-07-20T09:24:41;100295.44;;;23.93;50.25
29121;BME280;16191;49.548;8.658;2023-07-20T09:27:08;100298.13;;;23.56;50.57
29121;BME280;16191;49.548;8.658;2023-07-20T09:29:54;100302.22;;;23.12;51.88
29121;BME280;16191;49.548;8.658;2023-07-20T09:32:21;100298.78;;;23.48;51.23
29121;BME280;16191;49.548;8.658;2023-07-20T09:34:51;100294.28;;;23.68;50.21
29121;BME280;16191;49.548;8.658;2023-07-20T09:37:23;100287.75;;;24.45;47.48
29121;BME280;16191;49.548;8.658;2023-07-20T09:39:53;100284.34;;;24.88;47.75
29121;BME280;16191;49.548;8.658;2023-07-20T09:42:22;100284.28;;;24.98;45.90
29121;BME280;16191;49.548;8.658;2023-07-20T09:44:54;100287.47;;;25.19;45.31
29121;BME280;16191;49.548;8.658;2023-07-20T09:47:23;100285.63;;;25.19;45.22
29121;BME280;16191;49.548;8.658;2023-07-20T09:49:59;100285.84;;;24.37;47.62
29121;BME280;16191;49.548;8.658;2023-07-20T09:52:29;100280.78;;;24.07;48.99
29121;BME280;16191;49.548;8.658;2023-07-20T09:55:00;100285.88;;;24.00;49.28
29121;BME280;16191;49.548;8.658;2023-07-20T09:57:27;100277.41;;;24.05;49.77
29121;BME280;16191;49.548;8.658;2023-07-20T09:59:54;100282.16;;;24.11;48.64
29121;BME280;16191;49.548;8.658;2023-07-20T10:02:25;100277.88;;;24.27;48.56
29121;BME280;16191;49.548;8.658;2023-07-20T10:04:54;100283.06;;;23.65;48.94
29121;BME280;16191;49.548;8.658;2023-07-20T10:07:22;100280.19;;;23.85;48.02
29121;BME280;16191;49.548;8.658;2023-07-20T10:09:51;100279.50;;;24.11;47.42
29121;BME280;16191;49.548;8.658;2023-07-20T10:12:20;100273.69;;;23.61;48.42
29121;BME280;16191;49.548;8.658;2023-07-20T10:15:18;100271.28;;;25.20;45.54
29121;BME280;16191;49.548;8.658;2023-07-20T10:18:02;100262.88;;;25.93;44.18
29121;BME280;16191;49.548;8.658;2023-07-20T10:20:34;100265.50;;;26.27;43.09
29121;BME280;16191;49.548;8.658;2023-07-20T10:23:02;100265.06;;;26.48;42.73
29121;BME280;16191;49.548;8.658;2023-07-20T10:25:29;100268.00;;;25.52;43.69
29121;BME280;16191;49.548;8.658;2023-07-20T10:27:56;100264.16;;;25.81;42.80
29121;BME280;16191;49.548;8.658;2023-07-20T10:30:24;100254.59;;;26.20;42.41
29121;BME280;16191;49.548;8.658;2023-07-20T10:32:51;100255.44;;;26.95;41.71
29121;BME280;16191;49.548;8.658;2023-07-20T10:35:19;100248.56;;;27.09;41.35
29121;BME280;16191;49.548;8.658;2023-07-20T10:37:53;100247.72;;;27.25;40.78
29121;BME280;16191;49.548;8.658;2023-07-20T10:42:50;100247.09;;;27.78;39.38
29121;BME280;16191;49.548;8.658;2023-07-20T10:45:17;100240.16;;;26.63;40.43
29121;BME280;16191;49.548;8.658;2023-07-20T10:47:45;100238.72;;;27.02;40.47
29121;BME280;16191;49.548;8.658;2023-07-20T10:50:13;100236.00;;;27.18;40.03
29121;BME280;16191;49.548;8.658;2023-07-20T10:52:40;100237.81;;;26.85;40.23
29121;BME280;16191;49.548;8.658;2023-07-20T10:55:19;100230.47;;;26.54;39.79
29121;BME280;16191;49.548;8.658;2023-07-20T10:58:06;100222.44;;;26.38;40.10
29121;BME280;16191;49.548;8.658;2023-07-20T11:00:33;100233.44;;;26.43;39.97
29121;BME280;16191;49.548;8.658;2023-07-20T11:02:59;100220.25;;;26.90;39.57
29121;BME280;16191;49.548;8.658;2023-07-20T11:08:10;100205.72;;;27.73;38.29
29121;BME280;16191;49.548;8.658;2023-07-20T11:10:38;100208.63;;;27.63;39.12
29121;BME280;16191;49.548;8.658;2023-07-20T11:13:17;100218.59;;;26.57;40.24
29121;BME280;16191;49.548;8.658;2023-07-20T11:15:46;100217.75;;;26.89;40.55
29121;BME280;16191;49.548;8.658;2023-07-20T11:18:14;100216.28;;;27.03;39.88
29121;BME280;16191;49.548;8.658;2023-07-20T11:20:41;100218.41;;;26.91;39.99
29121;BME280;16191;49.548;8.658;2023-07-20T11:23:08;100213.94;;;26.01;41.61
29121;BME280;16191;49.548;8.658;2023-07-20T11:25:39;100209.16;;;26.28;40.58
29121;BME280;16191;49.548;8.658;2023-07-20T11:28:07;100215.72;;;26.42;39.60
29121;BME280;16191;49.548;8.658;2023-07-20T11:30:37;100198.63;;;27.41;38.28
29121;BME280;16191;49.548;8.658;2023-07-20T11:33:05;100196.72;;;28.96;36.50
29121;BME280;16191;49.548;8.658;2023-07-20T11:35:42;100185.03;;;29.41;35.50
29121;BME280;16191;49.548;8.658;2023-07-20T11:38:08;100191.66;;;29.16;35.68
29121;BME280;16191;49.548;8.658;2023-07-20T11:40:35;100187.81;;;28.58;36.60
29121;BME280;16191;49.548;8.658;2023-07-20T11:43:02;100195.06;;;28.95;34.94
29121;BME280;16191;49.548;8.658;2023-07-20T11:45:31;100188.22;;;28.24;36.80
29121;BME280;16191;49.548;8.658;2023-07-20T11:47:59;100189.31;;;28.07;37.56
29121;BME280;16191;49.548;8.658;2023-07-20T11:50:26;100188.16;;;27.70;35.96
29121;BME280;16191;49.548;8.658;2023-07-20T11:52:53;100181.38;;;27.35;36.22
29121;BME280;16191;49.548;8.658;2023-07-20T11:55:20;100181.41;;;27.74;36.20
29121;BME280;16191;49.548;8.658;2023-07-20T11:58:06;100182.72;;;27.31;37.58
29121;BME280;16191;49.548;8.658;2023-07-20T12:00:34;100185.16;;;26.61;38.28
29121;BME280;16191;49.548;8.658;2023-07-20T12:03:01;100173.84;;;27.39;38.08
29121;BME280;16191;49.548;8.658;2023-07-20T12:05:28;100172.53;;;27.26;38.21
29121;BME280;16191;49.548;8.658;2023-07-20T12:07:54;100169.81;;;27.43;36.59
29121;BME280;16191;49.548;8.658;2023-07-20T12:10:27;100173.78;;;26.83;38.76
29121;BME280;16191;49.548;8.658;2023-07-20T12:12:54;100169.41;;;26.34;39.17
29121;BME280;16191;49.548;8.658;2023-07-20T12:15:27;100174.25;;;26.87;38.61
29121;BME280;16191;49.548;8.658;2023-07-20T12:18:00;100163.84;;;27.16;37.99
29121;BME280;16191;49.548;8.658;2023-07-20T12:20:28;100164.88;;;27.07;37.73
29121;BME280;16191;49.548;8.658;2023-07-20T12:22:57;100158.34;;;26.93;38.45
29121;BME280;16191;49.548;8.658;2023-07-20T12:25:32;100158.09;;;27.44;37.88
29121;BME280;16191;49.548;8.658;2023-07-20T12:28:11;100157.66;;;27.16;37.81
29121;BME280;16191;49.548;8.658;2023-07-20T12:30:39;100159.13;;;26.05;38.54
29121;BME280;16191;49.548;8.658;2023-07-20T12:33:06;100154.84;;;26.69;38.34
29121;BME280;16191;49.548;8.658;2023-07-20T12:35:33;100155.38;;;27.91;36.29
29121;BME280;16191;49.548;8.658;2023-07-20T12:38:00;100151.38;;;28.78;35.19
29121;BME280;16191;49.548;8.658;2023-07-20T12:40:27;100150.69;;;28.39;35.02
29121;BME280;16191;49.548;8.658;2023-07-20T12:42:54;100141.78;;;27.92;35.84
29121;BME280;16191;49.548;8.658;2023-07-20T12:45:20;100142.25;;;29.02;34.16
29121;BME280;16191;49.548;8.658;2023-07-20T12:47:48;100145.03;;;29.67;33.18
29121;BME280;16191;49.548;8.658;2023-07-20T12:50:15;100147.50;;;30.41;32.07
29121;BME280;16191;49.548;8.658;2023-07-20T12:52:41;100145.63;;;29.99;32.73
29121;BME280;16191;49.548;8.658;2023-07-20T12:55:09;100137.13;;;30.59;32.35
29121;BME280;16191;49.548;8.658;2023-07-20T12:57:37;100134.81;;;29.78;32.67
29121;BME280;16191;49.548;8.658;2023-07-20T13:00:05;100125.69;;;29.13;33.76
29121;BME280;16191;49.548;8.658;2023-07-20T13:02:34;100131.97;;;29.06;33.11
29121;BME280;16191;49.548;8.658;2023-07-20T13:05:01;100133.44;;;29.67;31.26
29121;BME280;16191;49.548;8.658;2023-07-20T13:07:33;100120.44;;;31.33;29.50
29121;BME280;16191;49.548;8.658;2023-07-20T13:10:04;100119.41;;;31.34;29.18